Tucker, Georgia
Current Conditions -  °F | °C
As of 3:53 AM on Wednesday 28 Jan 2015 (Local Time) from KPDK Reporting Station
Clear Clear  
Wind Chill: 26°   Ceiling: Unl
Heat Index: 32°   Visibility: 10mi
Dew Point: 24°   Wind: 7mph
Humidity: 73%   Direction: 320°NW
Pressure: 30.12"   Gusts: NA
Location:  33.85°N, 84.21°W
Report Text: KPDK 280853Z AUTO 32006KT 10SM CLR 00/M04 A3012 RMK AO2 SLP213 T00001044 53009
Loading
Personal Weather Stations






























Interactive Weather Map New forecast layout! Learn more

10-Day Weather Forecast

Advertisements
Track Severe Weather on mobile